sensor_id;sensor_type;location;lat;lon;timestamp;P1;durP1;ratioP1;P2;durP2;ratioP2
13733;SDS011;43298;52.560;13.508;2023-07-02T00:01:48;2.22;;;0.98;;
13733;SDS011;43298;52.560;13.508;2023-07-02T00:04:15;1.63;;;1.00;;
13733;SDS011;43298;52.560;13.508;2023-07-02T00:06:42;1.05;;;0.85;;
13733;SDS011;43298;52.560;13.508;2023-07-02T00:09:09;1.15;;;1.05;;
13733;SDS011;43298;52.560;13.508;2023-07-02T00:11:37;1.50;;;0.80;;
13733;SDS011;43298;52.560;13.508;2023-07-02T00:14:04;1.02;;;0.93;;
13733;SDS011;43298;52.560;13.508;2023-07-02T00:16:34;1.20;;;1.02;;
13733;SDS011;43298;52.560;13.508;2023-07-02T00:19:05;1.08;;;0.98;;
13733;SDS011;43298;52.560;13.508;2023-07-02T00:21:31;1.35;;;1.20;;
13733;SDS011;43298;52.560;13.508;2023-07-02T00:23:58;1.10;;;0.82;;
13733;SDS011;43298;52.560;13.508;2023-07-02T00:26:25;0.80;;;0.73;;
13733;SDS011;43298;52.560;13.508;2023-07-02T00:28:53;1.23;;;1.13;;
13733;SDS011;43298;52.560;13.508;2023-07-02T00:31:20;0.80;;;0.80;;
13733;SDS011;43298;52.560;13.508;2023-07-02T00:33:47;1.20;;;1.00;;
13733;SDS011;43298;52.560;13.508;2023-07-02T00:36:13;0.70;;;0.70;;
13733;SDS011;43298;52.560;13.508;2023-07-02T00:38:44;1.20;;;1.10;;
13733;SDS011;43298;52.560;13.508;2023-07-02T00:41:12;1.40;;;1.30;;
13733;SDS011;43298;52.560;13.508;2023-07-02T00:43:38;1.08;;;0.98;;
13733;SDS011;43298;52.560;13.508;2023-07-02T00:46:08;1.20;;;1.10;;
13733;SDS011;43298;52.560;13.508;2023-07-02T00:48:45;1.08;;;0.98;;
13733;SDS011;43298;52.560;13.508;2023-07-02T00:51:16;1.17;;;0.95;;
13733;SDS011;43298;52.560;13.508;2023-07-02T00:53:45;1.10;;;1.00;;
13733;SDS011;43298;52.560;13.508;2023-07-02T00:56:13;1.60;;;1.30;;
13733;SDS011;43298;52.560;13.508;2023-07-02T00:58:40;1.38;;;1.08;;
13733;SDS011;43298;52.560;13.508;2023-07-02T01:01:15;1.50;;;1.38;;
13733;SDS011;43298;52.560;13.508;2023-07-02T01:06:24;1.20;;;1.00;;
13733;SDS011;43298;52.560;13.508;2023-07-02T01:08:59;1.10;;;1.00;;
13733;SDS011;43298;52.560;13.508;2023-07-02T01:11:31;4.25;;;1.60;;
13733;SDS011;43298;52.560;13.508;2023-07-02T01:14:12;0.82;;;0.82;;
13733;SDS011;43298;52.560;13.508;2023-07-02T01:16:43;1.70;;;1.20;;
13733;SDS011;43298;52.560;13.508;2023-07-02T01:19:21;2.60;;;1.33;;
13733;SDS011;43298;52.560;13.508;2023-07-02T01:22:18;2.20;;;1.52;;
13733;SDS011;43298;52.560;13.508;2023-07-02T01:24:45;2.42;;;1.30;;
13733;SDS011;43298;52.560;13.508;2023-07-02T01:27:13;5.28;;;1.67;;
13733;SDS011;43298;52.560;13.508;2023-07-02T01:29:40;2.17;;;1.80;;
13733;SDS011;43298;52.560;13.508;2023-07-02T01:32:06;1.60;;;1.50;;
13733;SDS011;43298;52.560;13.508;2023-07-02T01:34:36;1.60;;;1.30;;
13733;SDS011;43298;52.560;13.508;2023-07-02T01:37:05;1.50;;;1.40;;
13733;SDS011;43298;52.560;13.508;2023-07-02T01:39:31;1.38;;;1.27;;
13733;SDS011;43298;52.560;13.508;2023-07-02T01:44:52;2.00;;;1.42;;
13733;SDS011;43298;52.560;13.508;2023-07-02T01:47:18;1.55;;;1.45;;
13733;SDS011;43298;52.560;13.508;2023-07-02T01:49:45;1.75;;;1.65;;
13733;SDS011;43298;52.560;13.508;2023-07-02T01:52:11;3.70;;;1.63;;
13733;SDS011;43298;52.560;13.508;2023-07-02T01:54:37;2.53;;;1.83;;
13733;SDS011;43298;52.560;13.508;2023-07-02T01:57:03;1.80;;;1.60;;
13733;SDS011;43298;52.560;13.508;2023-07-02T01:59:29;2.33;;;1.25;;
13733;SDS011;43298;52.560;13.508;2023-07-02T02:01:55;4.35;;;1.98;;
13733;SDS011;43298;52.560;13.508;2023-07-02T02:04:21;1.70;;;1.50;;
13733;SDS011;43298;52.560;13.508;2023-07-02T02:06:47;1.80;;;1.70;;
13733;SDS011;43298;52.560;13.508;2023-07-02T02:09:13;2.20;;;1.90;;
13733;SDS011;43298;52.560;13.508;2023-07-02T02:11:39;1.80;;;1.67;;
13733;SDS011;43298;52.560;13.508;2023-07-02T02:14:10;2.20;;;2.00;;
13733;SDS011;43298;52.560;13.508;2023-07-02T02:16:36;3.60;;;1.92;;
13733;SDS011;43298;52.560;13.508;2023-07-02T02:19:02;2.38;;;1.92;;
13733;SDS011;43298;52.560;13.508;2023-07-02T02:21:28;2.13;;;1.92;;
13733;SDS011;43298;52.560;13.508;2023-07-02T02:23:55;2.65;;;2.33;;
13733;SDS011;43298;52.560;13.508;2023-07-02T02:26:21;2.50;;;2.30;;
13733;SDS011;43298;52.560;13.508;2023-07-02T02:28:48;2.55;;;2.35;;
13733;SDS011;43298;52.560;13.508;2023-07-02T02:31:14;2.40;;;2.08;;
13733;SDS011;43298;52.560;13.508;2023-07-02T02:33:40;3.47;;;2.20;;
13733;SDS011;43298;52.560;13.508;2023-07-02T02:36:06;2.28;;;2.03;;
13733;SDS011;43298;52.560;13.508;2023-07-02T02:38:32;2.40;;;2.20;;
13733;SDS011;43298;52.560;13.508;2023-07-02T02:40:59;2.65;;;2.05;;
13733;SDS011;43298;52.560;13.508;2023-07-02T02:43:26;2.53;;;2.00;;
13733;SDS011;43298;52.560;13.508;2023-07-02T02:45:52;2.72;;;2.25;;
13733;SDS011;43298;52.560;13.508;2023-07-02T02:48:18;2.22;;;2.03;;
13733;SDS011;43298;52.560;13.508;2023-07-02T02:50:44;2.17;;;2.00;;
13733;SDS011;43298;52.560;13.508;2023-07-02T02:53:10;2.33;;;2.13;;
13733;SDS011;43298;52.560;13.508;2023-07-02T02:55:36;2.00;;;1.80;;
13733;SDS011;43298;52.560;13.508;2023-07-02T02:58:02;2.05;;;1.85;;
13733;SDS011;43298;52.560;13.508;2023-07-02T03:00:29;2.00;;;1.80;;
13733;SDS011;43298;52.560;13.508;2023-07-02T03:02:54;2.35;;;1.88;;
13733;SDS011;43298;52.560;13.508;2023-07-02T03:05:21;2.05;;;1.85;;
13733;SDS011;43298;52.560;13.508;2023-07-02T03:07:47;2.97;;;1.85;;
13733;SDS011;43298;52.560;13.508;2023-07-02T03:10:15;2.22;;;2.03;;
13733;SDS011;43298;52.560;13.508;2023-07-02T03:12:41;2.55;;;1.83;;
13733;SDS011;43298;52.560;13.508;2023-07-02T03:15:07;2.33;;;1.90;;
13733;SDS011;43298;52.560;13.508;2023-07-02T03:17:34;2.90;;;2.15;;
13733;SDS011;43298;52.560;13.508;2023-07-02T03:20:01;2.20;;;2.00;;
13733;SDS011;43298;52.560;13.508;2023-07-02T03:22:29;1.83;;;1.67;;
13733;SDS011;43298;52.560;13.508;2023-07-02T03:24:55;2.75;;;2.13;;
13733;SDS011;43298;52.560;13.508;2023-07-02T03:27:21;2.58;;;1.90;;
13733;SDS011;43298;52.560;13.508;2023-07-02T03:29:46;2.03;;;1.83;;
13733;SDS011;43298;52.560;13.508;2023-07-02T03:32:12;1.65;;;1.55;;
13733;SDS011;43298;52.560;13.508;2023-07-02T03:34:38;1.52;;;1.40;;
13733;SDS011;43298;52.560;13.508;2023-07-02T03:37:04;1.90;;;1.70;;
13733;SDS011;43298;52.560;13.508;2023-07-02T03:39:30;2.08;;;1.80;;
13733;SDS011;43298;52.560;13.508;2023-07-02T03:41:56;2.10;;;1.83;;
13733;SDS011;43298;52.560;13.508;2023-07-02T03:44:21;2.50;;;1.92;;
13733;SDS011;43298;52.560;13.508;2023-07-02T03:46:47;1.67;;;1.58;;
13733;SDS011;43298;52.560;13.508;2023-07-02T03:49:13;2.83;;;1.80;;
13733;SDS011;43298;52.560;13.508;2023-07-02T03:51:39;2.03;;;1.80;;
13733;SDS011;43298;52.560;13.508;2023-07-02T03:54:05;6.68;;;2.03;;
13733;SDS011;43298;52.560;13.508;2023-07-02T03:56:31;1.58;;;1.30;;
13733;SDS011;43298;52.560;13.508;2023-07-02T03:58:57;1.42;;;1.33;;
13733;SDS011;43298;52.560;13.508;2023-07-02T04:01:23;2.08;;;1.63;;
13733;SDS011;43298;52.560;13.508;2023-07-02T04:03:49;1.95;;;1.40;;
13733;SDS011;43298;52.560;13.508;2023-07-02T04:06:18;2.15;;;1.67;;
13733;SDS011;43298;52.560;13.508;2023-07-02T04:08:45;1.50;;;1.33;;
13733;SDS011;43298;52.560;13.508;2023-07-02T04:11:11;1.50;;;1.35;;
13733;SDS011;43298;52.560;13.508;2023-07-02T04:13:37;2.92;;;1.55;;
13733;SDS011;43298;52.560;13.508;2023-07-02T04:16:04;1.33;;;1.23;;
13733;SDS011;43298;52.560;13.508;2023-07-02T04:18:31;2.85;;;1.80;;
13733;SDS011;43298;52.560;13.508;2023-07-02T04:20:57;2.45;;;1.58;;
13733;SDS011;43298;52.560;13.508;2023-07-02T04:23:24;3.53;;;1.83;;
13733;SDS011;43298;52.560;13.508;2023-07-02T04:25:50;2.25;;;1.50;;
13733;SDS011;43298;52.560;13.508;2023-07-02T04:28:16;2.78;;;1.80;;
13733;SDS011;43298;52.560;13.508;2023-07-02T04:30:42;2.97;;;1.50;;
13733;SDS011;43298;52.560;13.508;2023-07-02T04:33:08;1.33;;;0.90;;
13733;SDS011;43298;52.560;13.508;2023-07-02T04:35:34;2.88;;;1.75;;
13733;SDS011;43298;52.560;13.508;2023-07-02T04:38:00;1.33;;;1.23;;
13733;SDS011;43298;52.560;13.508;2023-07-02T04:40:26;2.05;;;1.55;;
13733;SDS011;43298;52.560;13.508;2023-07-02T04:42:52;1.70;;;1.52;;
13733;SDS011;43298;52.560;13.508;2023-07-02T04:45:22;2.40;;;1.50;;
13733;SDS011;43298;52.560;13.508;2023-07-02T04:47:50;1.40;;;1.30;;
13733;SDS011;43298;52.560;13.508;2023-07-02T04:50:17;2.17;;;1.52;;
13733;SDS011;43298;52.560;13.508;2023-07-02T04:52:43;1.52;;;1.42;;
13733;SDS011;43298;52.560;13.508;2023-07-02T04:55:09;1.40;;;1.10;;
13733;SDS011;43298;52.560;13.508;2023-07-02T04:57:35;2.10;;;1.33;;
13733;SDS011;43298;52.560;13.508;2023-07-02T05:00:02;1.73;;;1.38;;
13733;SDS011;43298;52.560;13.508;2023-07-02T05:02:30;1.98;;;1.45;;
13733;SDS011;43298;52.560;13.508;2023-07-02T05:04:56;1.50;;;1.40;;
13733;SDS011;43298;52.560;13.508;2023-07-02T05:07:22;1.27;;;1.17;;
13733;SDS011;43298;52.560;13.508;2023-07-02T05:09:48;2.38;;;1.00;;
13733;SDS011;43298;52.560;13.508;2023-07-02T05:12:16;1.60;;;1.23;;
13733;SDS011;43298;52.560;13.508;2023-07-02T05:14:43;1.20;;;1.10;;
13733;SDS011;43298;52.560;13.508;2023-07-02T05:17:09;1.67;;;1.33;;
13733;SDS011;43298;52.560;13.508;2023-07-02T05:19:34;1.38;;;1.23;;
13733;SDS011;43298;52.560;13.508;2023-07-02T05:22:00;2.03;;;1.40;;
13733;SDS011;43298;52.560;13.508;2023-07-02T05:24:26;1.55;;;1.35;;
13733;SDS011;43298;52.560;13.508;2023-07-02T05:26:52;1.30;;;1.20;;
13733;SDS011;43298;52.560;13.508;2023-07-02T05:29:18;2.08;;;1.48;;
13733;SDS011;43298;52.560;13.508;2023-07-02T05:31:44;2.28;;;0.88;;
13733;SDS011;43298;52.560;13.508;2023-07-02T05:34:10;1.95;;;1.13;;
13733;SDS011;43298;52.560;13.508;2023-07-02T05:36:35;1.30;;;1.20;;
13733;SDS011;43298;52.560;13.508;2023-07-02T05:39:02;1.10;;;1.00;;
13733;SDS011;43298;52.560;13.508;2023-07-02T05:41:28;2.45;;;1.45;;
13733;SDS011;43298;52.560;13.508;2023-07-02T05:43:58;0.93;;;0.93;;
13733;SDS011;43298;52.560;13.508;2023-07-02T05:46:24;1.52;;;1.13;;
13733;SDS011;43298;52.560;13.508;2023-07-02T05:48:51;1.42;;;1.33;;
13733;SDS011;43298;52.560;13.508;2023-07-02T05:51:20;2.45;;;1.17;;
13733;SDS011;43298;52.560;13.508;2023-07-02T05:53:47;1.55;;;1.08;;
13733;SDS011;43298;52.560;13.508;2023-07-02T05:56:13;1.20;;;1.10;;
13733;SDS011;43298;52.560;13.508;2023-07-02T05:58:39;1.10;;;1.00;;
13733;SDS011;43298;52.560;13.508;2023-07-02T06:01:05;1.30;;;1.20;;
13733;SDS011;43298;52.560;13.508;2023-07-02T06:03:31;2.08;;;1.10;;
13733;SDS011;43298;52.560;13.508;2023-07-02T06:05:57;1.35;;;1.08;;
13733;SDS011;43298;52.560;13.508;2023-07-02T06:08:24;1.17;;;1.08;;
13733;SDS011;43298;52.560;13.508;2023-07-02T06:10:50;1.02;;;0.93;;
13733;SDS011;43298;52.560;13.508;2023-07-02T06:13:16;2.22;;;1.30;;
13733;SDS011;43298;52.560;13.508;2023-07-02T06:15:42;3.55;;;1.10;;
13733;SDS011;43298;52.560;13.508;2023-07-02T06:18:09;1.65;;;1.40;;
13733;SDS011;43298;52.560;13.508;2023-07-02T06:20:35;1.77;;;1.48;;
13733;SDS011;43298;52.560;13.508;2023-07-02T06:23:00;1.75;;;1.30;;
13733;SDS011;43298;52.560;13.508;2023-07-02T06:25:26;1.33;;;1.23;;
13733;SDS011;43298;52.560;13.508;2023-07-02T06:27:52;4.32;;;1.10;;
13733;SDS011;43298;52.560;13.508;2023-07-02T06:30:21;2.58;;;1.30;;
13733;SDS011;43298;52.560;13.508;2023-07-02T06:32:47;1.00;;;0.90;;
13733;SDS011;43298;52.560;13.508;2023-07-02T06:35:13;2.88;;;1.38;;
13733;SDS011;43298;52.560;13.508;2023-07-02T06:37:39;1.65;;;1.20;;
13733;SDS011;43298;52.560;13.508;2023-07-02T06:40:05;6.47;;;1.35;;
13733;SDS011;43298;52.560;13.508;2023-07-02T06:42:32;2.50;;;1.02;;
13733;SDS011;43298;52.560;13.508;2023-07-02T06:44:58;2.40;;;1.35;;
13733;SDS011;43298;52.560;13.508;2023-07-02T06:47:24;2.80;;;1.15;;
13733;SDS011;43298;52.560;13.508;2023-07-02T06:49:51;0.93;;;0.85;;
13733;SDS011;43298;52.560;13.508;2023-07-02T06:52:18;1.00;;;0.90;;
13733;SDS011;43298;52.560;13.508;2023-07-02T06:54:44;3.60;;;1.42;;
13733;SDS011;43298;52.560;13.508;2023-07-02T06:57:10;1.75;;;1.05;;
13733;SDS011;43298;52.560;13.508;2023-07-02T06:59:40;0.82;;;0.77;;
13733;SDS011;43298;52.560;13.508;2023-07-02T07:02:06;1.52;;;1.23;;
13733;SDS011;43298;52.560;13.508;2023-07-02T07:04:32;1.67;;;1.10;;
13733;SDS011;43298;52.560;13.508;2023-07-02T07:06:59;1.35;;;1.10;;
13733;SDS011;43298;52.560;13.508;2023-07-02T07:09:28;1.67;;;1.20;;
13733;SDS011;43298;52.560;13.508;2023-07-02T07:11:55;3.85;;;1.05;;
13733;SDS011;43298;52.560;13.508;2023-07-02T07:14:21;0.95;;;0.93;;
13733;SDS011;43298;52.560;13.508;2023-07-02T07:16:47;0.80;;;0.80;;
13733;SDS011;43298;52.560;13.508;2023-07-02T07:19:13;3.90;;;1.23;;
13733;SDS011;43298;52.560;13.508;2023-07-02T07:21:38;1.13;;;0.80;;
13733;SDS011;43298;52.560;13.508;2023-07-02T07:24:05;1.50;;;1.33;;
13733;SDS011;43298;52.560;13.508;2023-07-02T07:26:31;1.50;;;1.33;;
13733;SDS011;43298;52.560;13.508;2023-07-02T07:28:57;1.10;;;0.93;;
13733;SDS011;43298;52.560;13.508;2023-07-02T07:31:23;2.20;;;1.27;;
13733;SDS011;43298;52.560;13.508;2023-07-02T07:33:50;1.55;;;1.00;;
13733;SDS011;43298;52.560;13.508;2023-07-02T07:36:15;1.95;;;1.58;;
13733;SDS011;43298;52.560;13.508;2023-07-02T07:38:44;1.00;;;0.90;;
13733;SDS011;43298;52.560;13.508;2023-07-02T07:41:10;1.45;;;1.20;;
13733;SDS011;43298;52.560;13.508;2023-07-02T07:43:36;1.27;;;0.90;;
13733;SDS011;43298;52.560;13.508;2023-07-02T07:46:02;1.63;;;1.15;;
13733;SDS011;43298;52.560;13.508;2023-07-02T07:48:28;1.10;;;1.00;;
13733;SDS011;43298;52.560;13.508;2023-07-02T07:50:54;2.22;;;1.50;;
13733;SDS011;43298;52.560;13.508;2023-07-02T07:53:20;1.25;;;1.05;;
13733;SDS011;43298;52.560;13.508;2023-07-02T07:55:46;2.25;;;1.27;;
13733;SDS011;43298;52.560;13.508;2023-07-02T07:58:12;2.50;;;1.23;;
13733;SDS011;43298;52.560;13.508;2023-07-02T08:00:38;2.13;;;1.20;;
13733;SDS011;43298;52.560;13.508;2023-07-02T08:03:04;1.17;;;0.95;;
13733;SDS011;43298;52.560;13.508;2023-07-02T08:05:30;1.73;;;1.25;;
13733;SDS011;43298;52.560;13.508;2023-07-02T08:07:56;1.45;;;1.05;;
13733;SDS011;43298;52.560;13.508;2023-07-02T08:10:23;2.80;;;1.42;;
13733;SDS011;43298;52.560;13.508;2023-07-02T08:12:50;1.20;;;1.10;;
13733;SDS011;43298;52.560;13.508;2023-07-02T08:15:17;1.45;;;1.35;;
13733;SDS011;43298;52.560;13.508;2023-07-02T08:17:43;1.65;;;1.17;;
13733;SDS011;43298;52.560;13.508;2023-07-02T08:20:09;1.15;;;0.90;;
13733;SDS011;43298;52.560;13.508;2023-07-02T08:22:40;2.50;;;1.40;;
13733;SDS011;43298;52.560;13.508;2023-07-02T08:25:06;1.90;;;1.10;;
13733;SDS011;43298;52.560;13.508;2023-07-02T08:27:32;1.70;;;0.85;;
13733;SDS011;43298;52.560;13.508;2023-07-02T08:29:59;2.28;;;0.93;;
13733;SDS011;43298;52.560;13.508;2023-07-02T08:32:25;2.03;;;1.50;;
13733;SDS011;43298;52.560;13.508;2023-07-02T08:34:51;1.30;;;1.20;;
13733;SDS011;43298;52.560;13.508;2023-07-02T08:37:17;1.48;;;1.20;;
13733;SDS011;43298;52.560;13.508;2023-07-02T08:39:43;1.55;;;1.45;;
13733;SDS011;43298;52.560;13.508;2023-07-02T08:42:09;2.53;;;1.35;;
13733;SDS011;43298;52.560;13.508;2023-07-02T08:44:35;3.63;;;1.45;;
13733;SDS011;43298;52.560;13.508;2023-07-02T08:47:01;4.07;;;1.35;;
13733;SDS011;43298;52.560;13.508;2023-07-02T08:49:28;1.80;;;1.25;;
13733;SDS011;43298;52.560;13.508;2023-07-02T08:51:54;1.52;;;1.30;;
13733;SDS011;43298;52.560;13.508;2023-07-02T08:54:20;1.30;;;1.20;;
13733;SDS011;43298;52.560;13.508;2023-07-02T08:56:46;2.17;;;1.30;;
13733;SDS011;43298;52.560;13.508;2023-07-02T08:59:12;1.40;;;1.05;;
13733;SDS011;43298;52.560;13.508;2023-07-02T09:01:48;5.38;;;1.63;;
13733;SDS011;43298;52.560;13.508;2023-07-02T09:04:16;2.30;;;1.10;;
13733;SDS011;43298;52.560;13.508;2023-07-02T09:06:43;1.83;;;1.38;;
13733;SDS011;43298;52.560;13.508;2023-07-02T09:09:10;2.58;;;1.10;;
13733;SDS011;43298;52.560;13.508;2023-07-02T09:11:45;3.20;;;1.52;;
13733;SDS011;43298;52.560;13.508;2023-07-02T09:14:23;1.85;;;1.27;;
13733;SDS011;43298;52.560;13.508;2023-07-02T09:19:30;2.45;;;1.23;;
13733;SDS011;43298;52.560;13.508;2023-07-02T09:21:57;2.67;;;1.60;;
13733;SDS011;43298;52.560;13.508;2023-07-02T09:24:28;1.67;;;1.33;;
13733;SDS011;43298;52.560;13.508;2023-07-02T09:26:57;2.65;;;1.40;;
13733;SDS011;43298;52.560;13.508;2023-07-02T09:29:26;3.88;;;1.90;;
13733;SDS011;43298;52.560;13.508;2023-07-02T09:31:57;1.98;;;1.15;;
13733;SDS011;43298;52.560;13.508;2023-07-02T09:34:29;3.40;;;1.90;;
13733;SDS011;43298;52.560;13.508;2023-07-02T09:36:56;5.18;;;1.23;;
13733;SDS011;43298;52.560;13.508;2023-07-02T09:39:28;2.20;;;1.65;;
13733;SDS011;43298;52.560;13.508;2023-07-02T09:41:56;3.65;;;1.73;;
13733;SDS011;43298;52.560;13.508;2023-07-02T09:44:28;2.50;;;1.65;;
13733;SDS011;43298;52.560;13.508;2023-07-02T09:49:34;2.55;;;1.90;;
13733;SDS011;43298;52.560;13.508;2023-07-02T09:52:03;2.60;;;1.65;;
13733;SDS011;43298;52.560;13.508;2023-07-02T09:54:33;4.78;;;2.20;;
13733;SDS011;43298;52.560;13.508;2023-07-02T09:57:00;2.97;;;1.55;;
13733;SDS011;43298;52.560;13.508;2023-07-02T09:59:27;3.42;;;1.63;;
13733;SDS011;43298;52.560;13.508;2023-07-02T10:01:55;2.60;;;1.63;;
13733;SDS011;43298;52.560;13.508;2023-07-02T10:04:22;3.90;;;2.10;;
13733;SDS011;43298;52.560;13.508;2023-07-02T10:06:55;1.02;;;0.93;;
13733;SDS011;43298;52.560;13.508;2023-07-02T10:14:55;2.58;;;1.40;;
13733;SDS011;43298;52.560;13.508;2023-07-02T10:17:29;4.32;;;2.00;;
13733;SDS011;43298;52.560;13.508;2023-07-02T10:20:06;4.07;;;1.80;;
13733;SDS011;43298;52.560;13.508;2023-07-02T10:22:46;2.10;;;1.90;;
13733;SDS011;43298;52.560;13.508;2023-07-02T10:25:31;4.68;;;2.17;;
13733;SDS011;43298;52.560;13.508;2023-07-02T10:28:19;2.67;;;1.88;;
13733;SDS011;43298;52.560;13.508;2023-07-02T10:30:51;2.83;;;1.65;;
13733;SDS011;43298;52.560;13.508;2023-07-02T10:33:19;4.82;;;1.83;;
13733;SDS011;43298;52.560;13.508;2023-07-02T10:35:46;3.53;;;2.38;;
13733;SDS011;43298;52.560;13.508;2023-07-02T10:38:21;2.72;;;1.75;;
13733;SDS011;43298;52.560;13.508;2023-07-02T10:40:58;6.03;;;2.38;;
13733;SDS011;43298;52.560;13.508;2023-07-02T10:43:28;3.83;;;2.30;;
13733;SDS011;43298;52.560;13.508;2023-07-02T10:45:57;3.60;;;1.80;;
13733;SDS011;43298;52.560;13.508;2023-07-02T10:48:27;2.83;;;1.70;;
13733;SDS011;43298;52.560;13.508;2023-07-02T10:50:54;4.68;;;2.10;;
13733;SDS011;43298;52.560;13.508;2023-07-02T10:53:20;2.47;;;1.83;;
13733;SDS011;43298;52.560;13.508;2023-07-02T10:55:53;4.13;;;1.70;;
13733;SDS011;43298;52.560;13.508;2023-07-02T10:58:23;4.15;;;2.05;;
13733;SDS011;43298;52.560;13.508;2023-07-02T11:00:50;3.72;;;2.03;;
13733;SDS011;43298;52.560;13.508;2023-07-02T11:05:50;7.35;;;1.80;;
13733;SDS011;43298;52.560;13.508;2023-07-02T11:08:17;4.35;;;2.55;;
13733;SDS011;43298;52.560;13.508;2023-07-02T11:10:46;3.58;;;2.13;;
13733;SDS011;43298;52.560;13.508;2023-07-02T11:13:16;4.63;;;2.67;;
13733;SDS011;43298;52.560;13.508;2023-07-02T11:15:44;4.45;;;2.42;;
13733;SDS011;43298;52.560;13.508;2023-07-02T11:18:14;2.63;;;1.92;;
13733;SDS011;43298;52.560;13.508;2023-07-02T11:20:43;5.03;;;2.80;;
13733;SDS011;43298;52.560;13.508;2023-07-02T11:23:43;2.72;;;1.80;;
13733;SDS011;43298;52.560;13.508;2023-07-02T11:26:02;5.30;;;2.40;;
13733;SDS011;43298;52.560;13.508;2023-07-02T11:28:29;4.18;;;1.70;;
13733;SDS011;43298;52.560;13.508;2023-07-02T11:30:57;5.05;;;2.70;;
13733;SDS011;43298;52.560;13.508;2023-07-02T11:38:30;3.83;;;2.17;;
13733;SDS011;43298;52.560;13.508;2023-07-02T11:40:58;9.43;;;2.10;;
13733;SDS011;43298;52.560;13.508;2023-07-02T11:43:25;1.92;;;1.83;;
13733;SDS011;43298;52.560;13.508;2023-07-02T11:45:51;3.40;;;1.60;;
13733;SDS011;43298;52.560;13.508;2023-07-02T11:48:17;6.28;;;3.28;;
13733;SDS011;43298;52.560;13.508;2023-07-02T11:50:43;4.80;;;2.42;;
13733;SDS011;43298;52.560;13.508;2023-07-02T11:53:09;6.03;;;2.35;;
13733;SDS011;43298;52.560;13.508;2023-07-02T11:55:35;3.05;;;2.03;;
13733;SDS011;43298;52.560;13.508;2023-07-02T11:58:02;2.50;;;1.73;;
13733;SDS011;43298;52.560;13.508;2023-07-02T12:00:28;3.28;;;2.00;;
13733;SDS011;43298;52.560;13.508;2023-07-02T12:02:54;4.70;;;1.90;;
13733;SDS011;43298;52.560;13.508;2023-07-02T12:05:20;6.95;;;2.10;;
13733;SDS011;43298;52.560;13.508;2023-07-02T12:07:46;3.85;;;1.95;;
13733;SDS011;43298;52.560;13.508;2023-07-02T12:10:12;6.13;;;2.25;;
13733;SDS011;43298;52.560;13.508;2023-07-02T12:12:38;4.15;;;2.15;;
13733;SDS011;43298;52.560;13.508;2023-07-02T12:15:04;4.10;;;2.10;;
13733;SDS011;43298;52.560;13.508;2023-07-02T12:17:30;3.72;;;1.88;;
13733;SDS011;43298;52.560;13.508;2023-07-02T12:19:56;3.15;;;1.65;;
13733;SDS011;43298;52.560;13.508;2023-07-02T12:22:23;5.28;;;2.35;;
13733;SDS011;43298;52.560;13.508;2023-07-02T12:24:49;9.30;;;2.72;;
13733;SDS011;43298;52.560;13.508;2023-07-02T12:27:15;7.93;;;2.28;;
13733;SDS011;43298;52.560;13.508;2023-07-02T12:29:41;5.57;;;2.00;;
13733;SDS011;43298;52.560;13.508;2023-07-02T12:32:07;5.50;;;1.98;;
13733;SDS011;43298;52.560;13.508;2023-07-02T12:34:33;5.32;;;2.80;;
13733;SDS011;43298;52.560;13.508;2023-07-02T12:36:59;10.10;;;2.10;;
13733;SDS011;43298;52.560;13.508;2023-07-02T12:39:25;4.10;;;1.85;;
13733;SDS011;43298;52.560;13.508;2023-07-02T12:41:52;3.47;;;2.03;;
13733;SDS011;43298;52.560;13.508;2023-07-02T12:44:17;4.18;;;2.45;;
13733;SDS011;43298;52.560;13.508;2023-07-02T12:46:43;2.53;;;1.70;;
13733;SDS011;43298;52.560;13.508;2023-07-02T12:49:09;7.75;;;1.95;;
13733;SDS011;43298;52.560;13.508;2023-07-02T12:51:35;5.30;;;2.42;;
13733;SDS011;43298;52.560;13.508;2023-07-02T12:54:00;6.72;;;2.70;;
13733;SDS011;43298;52.560;13.508;2023-07-02T12:56:26;7.07;;;3.10;;
13733;SDS011;43298;52.560;13.508;2023-07-02T12:58:52;8.60;;;3.17;;
13733;SDS011;43298;52.560;13.508;2023-07-02T13:01:18;6.03;;;2.10;;
13733;SDS011;43298;52.560;13.508;2023-07-02T13:03:46;3.13;;;1.92;;
13733;SDS011;43298;52.560;13.508;2023-07-02T13:06:13;4.00;;;2.60;;
13733;SDS011;43298;52.560;13.508;2023-07-02T13:08:39;4.68;;;2.60;;
13733;SDS011;43298;52.560;13.508;2023-07-02T13:11:05;4.30;;;2.05;;
13733;SDS011;43298;52.560;13.508;2023-07-02T13:13:31;3.90;;;2.22;;
13733;SDS011;43298;52.560;13.508;2023-07-02T13:15:56;4.60;;;2.33;;
13733;SDS011;43298;52.560;13.508;2023-07-02T13:18:22;3.80;;;2.42;;
13733;SDS011;43298;52.560;13.508;2023-07-02T13:20:48;5.05;;;2.15;;
13733;SDS011;43298;52.560;13.508;2023-07-02T13:23:14;4.65;;;2.38;;
13733;SDS011;43298;52.560;13.508;2023-07-02T13:25:40;4.15;;;2.20;;
13733;SDS011;43298;52.560;13.508;2023-07-02T13:28:06;4.55;;;2.08;;
13733;SDS011;43298;52.560;13.508;2023-07-02T13:30:32;4.40;;;2.22;;
13733;SDS011;43298;52.560;13.508;2023-07-02T13:32:57;3.00;;;1.77;;
13733;SDS011;43298;52.560;13.508;2023-07-02T13:35:24;7.57;;;2.13;;
13733;SDS011;43298;52.560;13.508;2023-07-02T13:37:50;4.63;;;2.30;;
13733;SDS011;43298;52.560;13.508;2023-07-02T13:40:16;4.63;;;2.28;;
13733;SDS011;43298;52.560;13.508;2023-07-02T13:42:42;3.95;;;2.08;;
13733;SDS011;43298;52.560;13.508;2023-07-02T13:45:08;3.80;;;2.78;;
13733;SDS011;43298;52.560;13.508;2023-07-02T13:47:35;3.92;;;2.42;;
13733;SDS011;43298;52.560;13.508;2023-07-02T13:50:02;4.25;;;2.35;;
13733;SDS011;43298;52.560;13.508;2023-07-02T13:52:29;7.05;;;2.38;;
13733;SDS011;43298;52.560;13.508;2023-07-02T13:54:55;3.80;;;2.15;;
13733;SDS011;43298;52.560;13.508;2023-07-02T13:57:22;4.40;;;2.20;;
13733;SDS011;43298;52.560;13.508;2023-07-02T13:59:48;3.58;;;2.08;;
13733;SDS011;43298;52.560;13.508;2023-07-02T14:02:14;5.50;;;2.55;;
13733;SDS011;43298;52.560;13.508;2023-07-02T14:04:40;6.18;;;2.45;;
13733;SDS011;43298;52.560;13.508;2023-07-02T14:07:06;5.00;;;2.38;;
13733;SDS011;43298;52.560;13.508;2023-07-02T14:09:32;4.95;;;2.58;;
13733;SDS011;43298;52.560;13.508;2023-07-02T14:11:57;6.10;;;1.88;;
13733;SDS011;43298;52.560;13.508;2023-07-02T14:14:23;4.88;;;2.08;;
13733;SDS011;43298;52.560;13.508;2023-07-02T14:16:49;4.85;;;2.22;;
13733;SDS011;43298;52.560;13.508;2023-07-02T14:19:15;4.82;;;2.92;;
13733;SDS011;43298;52.560;13.508;2023-07-02T14:21:42;3.92;;;2.08;;
13733;SDS011;43298;52.560;13.508;2023-07-02T14:24:08;2.95;;;2.05;;
13733;SDS011;43298;52.560;13.508;2023-07-02T14:26:34;4.07;;;2.40;;
13733;SDS011;43298;52.560;13.508;2023-07-02T14:29:00;4.07;;;2.25;;
13733;SDS011;43298;52.560;13.508;2023-07-02T14:31:26;4.97;;;2.50;;
13733;SDS011;43298;52.560;13.508;2023-07-02T14:33:52;5.28;;;2.65;;
13733;SDS011;43298;52.560;13.508;2023-07-02T14:36:18;2.65;;;2.13;;
13733;SDS011;43298;52.560;13.508;2023-07-02T14:38:44;2.53;;;1.70;;
13733;SDS011;43298;52.560;13.508;2023-07-02T14:41:10;7.10;;;2.65;;
13733;SDS011;43298;52.560;13.508;2023-07-02T14:43:36;6.07;;;1.90;;
13733;SDS011;43298;52.560;13.508;2023-07-02T14:46:02;3.60;;;2.03;;
13733;SDS011;43298;52.560;13.508;2023-07-02T14:48:29;3.42;;;2.03;;
13733;SDS011;43298;52.560;13.508;2023-07-02T14:50:56;5.00;;;2.10;;
13733;SDS011;43298;52.560;13.508;2023-07-02T14:53:24;2.63;;;2.10;;
13733;SDS011;43298;52.560;13.508;2023-07-02T14:55:53;2.80;;;1.80;;
13733;SDS011;43298;52.560;13.508;2023-07-02T14:58:22;5.05;;;2.15;;